sensor_id;sensor_type;location;lat;lon;timestamp;P1;durP1;ratioP1;P2;durP2;ratioP2
51660;SDS011;37741;49.748;8.490;2023-02-28T00:00:06;3.53;;;1.20;;
51660;SDS011;37741;49.748;8.490;2023-02-28T00:06:00;2.10;;;1.17;;
51660;SDS011;37741;49.748;8.490;2023-02-28T00:08:26;2.22;;;1.25;;
51660;SDS011;37741;49.748;8.490;2023-02-28T00:10:52;2.30;;;1.10;;
51660;SDS011;37741;49.748;8.490;2023-02-28T00:13:17;3.47;;;1.67;;
51660;SDS011;37741;49.748;8.490;2023-02-28T00:15:43;2.03;;;1.08;;
51660;SDS011;37741;49.748;8.490;2023-02-28T00:18:10;2.10;;;1.10;;
51660;SDS011;37741;49.748;8.490;2023-02-28T00:20:36;2.15;;;1.10;;
51660;SDS011;37741;49.748;8.490;2023-02-28T00:23:02;2.80;;;1.30;;
51660;SDS011;37741;49.748;8.490;2023-02-28T00:25:28;2.80;;;1.33;;
51660;SDS011;37741;49.748;8.490;2023-02-28T00:27:54;2.70;;;1.23;;
51660;SDS011;37741;49.748;8.490;2023-02-28T00:30:20;2.28;;;1.10;;
51660;SDS011;37741;49.748;8.490;2023-02-28T00:32:47;2.35;;;1.08;;
51660;SDS011;37741;49.748;8.490;2023-02-28T00:35:14;2.90;;;1.60;;
51660;SDS011;37741;49.748;8.490;2023-02-28T00:37:40;3.97;;;1.50;;
51660;SDS011;37741;49.748;8.490;2023-02-28T00:40:06;3.35;;;1.30;;
51660;SDS011;37741;49.748;8.490;2023-02-28T00:42:36;5.45;;;1.60;;
51660;SDS011;37741;49.748;8.490;2023-02-28T00:45:02;2.25;;;1.20;;
51660;SDS011;37741;49.748;8.490;2023-02-28T00:47:31;2.58;;;1.35;;
51660;SDS011;37741;49.748;8.490;2023-02-28T00:49:57;2.42;;;1.30;;
51660;SDS011;37741;49.748;8.490;2023-02-28T00:52:22;2.67;;;1.40;;
51660;SDS011;37741;49.748;8.490;2023-02-28T00:54:48;2.40;;;1.17;;
51660;SDS011;37741;49.748;8.490;2023-02-28T00:57:14;2.45;;;1.33;;
51660;SDS011;37741;49.748;8.490;2023-02-28T00:59:40;2.70;;;1.42;;
51660;SDS011;37741;49.748;8.490;2023-02-28T01:02:05;3.33;;;1.33;;
51660;SDS011;37741;49.748;8.490;2023-02-28T01:04:31;4.10;;;1.73;;
51660;SDS011;37741;49.748;8.490;2023-02-28T01:06:56;4.07;;;1.40;;
51660;SDS011;37741;49.748;8.490;2023-02-28T01:09:22;2.60;;;1.48;;
51660;SDS011;37741;49.748;8.490;2023-02-28T01:11:48;2.03;;;1.23;;
51660;SDS011;37741;49.748;8.490;2023-02-28T01:14:14;3.72;;;1.20;;
51660;SDS011;37741;49.748;8.490;2023-02-28T01:16:41;3.72;;;1.30;;
51660;SDS011;37741;49.748;8.490;2023-02-28T01:19:07;2.63;;;1.55;;
51660;SDS011;37741;49.748;8.490;2023-02-28T01:21:33;2.63;;;1.40;;
51660;SDS011;37741;49.748;8.490;2023-02-28T01:24:00;2.15;;;1.33;;
51660;SDS011;37741;49.748;8.490;2023-02-28T01:26:26;3.05;;;1.80;;
51660;SDS011;37741;49.748;8.490;2023-02-28T01:28:52;2.38;;;1.13;;
51660;SDS011;37741;49.748;8.490;2023-02-28T01:31:19;2.60;;;1.33;;
51660;SDS011;37741;49.748;8.490;2023-02-28T01:33:46;4.18;;;1.77;;
51660;SDS011;37741;49.748;8.490;2023-02-28T01:36:13;2.30;;;1.30;;
51660;SDS011;37741;49.748;8.490;2023-02-28T01:38:41;4.70;;;1.77;;
51660;SDS011;37741;49.748;8.490;2023-02-28T01:41:07;5.18;;;1.70;;
51660;SDS011;37741;49.748;8.490;2023-02-28T01:46:08;3.22;;;1.58;;
51660;SDS011;37741;49.748;8.490;2023-02-28T01:48:36;2.97;;;1.42;;
51660;SDS011;37741;49.748;8.490;2023-02-28T01:51:11;2.05;;;1.20;;
51660;SDS011;37741;49.748;8.490;2023-02-28T01:53:45;2.80;;;1.27;;
51660;SDS011;37741;49.748;8.490;2023-02-28T01:56:16;3.50;;;1.63;;
51660;SDS011;37741;49.748;8.490;2023-02-28T01:58:45;2.95;;;1.83;;
51660;SDS011;37741;49.748;8.490;2023-02-28T02:01:12;2.40;;;1.45;;
51660;SDS011;37741;49.748;8.490;2023-02-28T02:03:46;2.22;;;1.42;;
51660;SDS011;37741;49.748;8.490;2023-02-28T02:06:25;2.83;;;1.60;;
51660;SDS011;37741;49.748;8.490;2023-02-28T02:08:55;2.65;;;1.50;;
51660;SDS011;37741;49.748;8.490;2023-02-28T02:11:21;3.13;;;1.38;;
51660;SDS011;37741;49.748;8.490;2023-02-28T02:30:59;2.22;;;1.38;;
51660;SDS011;37741;49.748;8.490;2023-02-28T02:36:51;3.25;;;1.63;;
51660;SDS011;37741;49.748;8.490;2023-02-28T02:39:31;6.85;;;1.63;;
51660;SDS011;37741;49.748;8.490;2023-02-28T02:42:16;4.27;;;1.70;;
51660;SDS011;37741;49.748;8.490;2023-02-28T02:44:55;3.05;;;1.55;;
51660;SDS011;37741;49.748;8.490;2023-02-28T02:47:26;2.80;;;1.58;;
51660;SDS011;37741;49.748;8.490;2023-02-28T02:49:56;3.15;;;1.55;;
51660;SDS011;37741;49.748;8.490;2023-02-28T02:52:29;3.83;;;2.00;;
51660;SDS011;37741;49.748;8.490;2023-02-28T02:55:01;3.65;;;1.40;;
51660;SDS011;37741;49.748;8.490;2023-02-28T02:57:34;3.47;;;1.50;;
51660;SDS011;37741;49.748;8.490;2023-02-28T03:00:04;3.10;;;1.23;;
51660;SDS011;37741;49.748;8.490;2023-02-28T03:02:35;3.63;;;2.10;;
51660;SDS011;37741;49.748;8.490;2023-02-28T03:05:04;2.97;;;1.80;;
51660;SDS011;37741;49.748;8.490;2023-02-28T03:07:34;3.97;;;1.97;;
51660;SDS011;37741;49.748;8.490;2023-02-28T03:09:59;3.05;;;1.60;;
51660;SDS011;37741;49.748;8.490;2023-02-28T03:12:49;4.73;;;1.77;;
51660;SDS011;37741;49.748;8.490;2023-02-28T03:15:19;2.90;;;1.47;;
51660;SDS011;37741;49.748;8.490;2023-02-28T03:20:35;2.67;;;1.20;;
51660;SDS011;37741;49.748;8.490;2023-02-28T03:23:21;3.60;;;1.57;;
51660;SDS011;37741;49.748;8.490;2023-02-28T03:25:56;3.53;;;1.67;;
51660;SDS011;37741;49.748;8.490;2023-02-28T03:28:39;2.47;;;1.50;;
51660;SDS011;37741;49.748;8.490;2023-02-28T03:31:27;3.40;;;1.77;;
51660;SDS011;37741;49.748;8.490;2023-02-28T03:34:14;2.80;;;1.67;;
51660;SDS011;37741;49.748;8.490;2023-02-28T03:36:47;3.77;;;1.60;;
51660;SDS011;37741;49.748;8.490;2023-02-28T03:39:21;2.83;;;1.70;;
51660;SDS011;37741;49.748;8.490;2023-02-28T03:41:50;2.57;;;1.40;;
51660;SDS011;37741;49.748;8.490;2023-02-28T03:44:28;3.17;;;1.40;;
51660;SDS011;37741;49.748;8.490;2023-02-28T03:47:00;3.80;;;1.60;;
51660;SDS011;37741;49.748;8.490;2023-02-28T03:49:38;4.35;;;2.95;;
51660;SDS011;37741;49.748;8.490;2023-02-28T03:52:10;4.30;;;1.70;;
51660;SDS011;37741;49.748;8.490;2023-02-28T03:54:40;2.93;;;1.57;;
51660;SDS011;37741;49.748;8.490;2023-02-28T03:59:44;3.60;;;1.80;;
51660;SDS011;37741;49.748;8.490;2023-02-28T04:02:13;4.27;;;2.40;;
51660;SDS011;37741;49.748;8.490;2023-02-28T04:04:39;4.50;;;2.13;;
51660;SDS011;37741;49.748;8.490;2023-02-28T04:07:10;3.83;;;1.80;;
51660;SDS011;37741;49.748;8.490;2023-02-28T04:09:36;4.23;;;2.10;;
51660;SDS011;37741;49.748;8.490;2023-02-28T04:12:03;3.93;;;1.87;;
51660;SDS011;37741;49.748;8.490;2023-02-28T04:14:43;3.07;;;1.90;;
51660;SDS011;37741;49.748;8.490;2023-02-28T04:17:09;4.43;;;2.30;;
51660;SDS011;37741;49.748;8.490;2023-02-28T04:19:34;4.67;;;1.63;;
51660;SDS011;37741;49.748;8.490;2023-02-28T04:22:00;3.90;;;1.80;;
51660;SDS011;37741;49.748;8.490;2023-02-28T04:24:26;4.60;;;2.17;;
51660;SDS011;37741;49.748;8.490;2023-02-28T04:26:53;6.53;;;1.83;;
51660;SDS011;37741;49.748;8.490;2023-02-28T04:29:22;8.47;;;2.67;;
51660;SDS011;37741;49.748;8.490;2023-02-28T04:31:50;3.93;;;2.07;;
51660;SDS011;37741;49.748;8.490;2023-02-28T04:34:18;3.20;;;1.80;;
51660;SDS011;37741;49.748;8.490;2023-02-28T04:36:44;3.60;;;2.17;;
51660;SDS011;37741;49.748;8.490;2023-02-28T04:39:10;4.50;;;2.10;;
51660;SDS011;37741;49.748;8.490;2023-02-28T04:41:36;5.47;;;2.30;;
51660;SDS011;37741;49.748;8.490;2023-02-28T04:44:02;4.13;;;2.27;;
51660;SDS011;37741;49.748;8.490;2023-02-28T04:46:28;3.90;;;2.20;;
51660;SDS011;37741;49.748;8.490;2023-02-28T04:48:55;3.90;;;2.10;;
51660;SDS011;37741;49.748;8.490;2023-02-28T04:51:22;3.80;;;2.20;;
51660;SDS011;37741;49.748;8.490;2023-02-28T04:53:48;4.27;;;2.17;;
51660;SDS011;37741;49.748;8.490;2023-02-28T04:56:17;4.00;;;2.43;;
51660;SDS011;37741;49.748;8.490;2023-02-28T04:58:43;4.87;;;2.70;;
51660;SDS011;37741;49.748;8.490;2023-02-28T05:01:26;5.17;;;2.23;;
51660;SDS011;37741;49.748;8.490;2023-02-28T05:04:02;4.70;;;2.40;;
51660;SDS011;37741;49.748;8.490;2023-02-28T05:06:29;3.67;;;2.20;;
51660;SDS011;37741;49.748;8.490;2023-02-28T05:08:57;3.83;;;2.33;;
51660;SDS011;37741;49.748;8.490;2023-02-28T05:11:24;4.53;;;2.40;;
51660;SDS011;37741;49.748;8.490;2023-02-28T05:13:52;4.07;;;2.37;;
51660;SDS011;37741;49.748;8.490;2023-02-28T05:16:19;4.33;;;2.37;;
51660;SDS011;37741;49.748;8.490;2023-02-28T05:18:45;3.53;;;2.10;;
51660;SDS011;37741;49.748;8.490;2023-02-28T05:23:50;3.83;;;2.20;;
51660;SDS011;37741;49.748;8.490;2023-02-28T05:26:17;5.60;;;2.47;;
51660;SDS011;37741;49.748;8.490;2023-02-28T05:28:43;3.73;;;2.50;;
51660;SDS011;37741;49.748;8.490;2023-02-28T05:31:11;4.20;;;3.00;;
51660;SDS011;37741;49.748;8.490;2023-02-28T05:33:37;4.37;;;2.50;;
51660;SDS011;37741;49.748;8.490;2023-02-28T05:36:03;5.13;;;2.40;;
51660;SDS011;37741;49.748;8.490;2023-02-28T05:38:28;3.90;;;2.13;;
51660;SDS011;37741;49.748;8.490;2023-02-28T05:40:54;4.23;;;2.40;;
51660;SDS011;37741;49.748;8.490;2023-02-28T05:43:20;5.27;;;2.67;;
51660;SDS011;37741;49.748;8.490;2023-02-28T05:45:45;5.37;;;3.17;;
51660;SDS011;37741;49.748;8.490;2023-02-28T05:48:11;5.47;;;2.90;;
51660;SDS011;37741;49.748;8.490;2023-02-28T05:50:37;5.87;;;2.87;;
51660;SDS011;37741;49.748;8.490;2023-02-28T05:53:03;4.00;;;2.33;;
51660;SDS011;37741;49.748;8.490;2023-02-28T05:55:31;5.40;;;3.00;;
51660;SDS011;37741;49.748;8.490;2023-02-28T05:57:56;4.53;;;2.60;;
51660;SDS011;37741;49.748;8.490;2023-02-28T06:00:22;5.70;;;2.60;;
51660;SDS011;37741;49.748;8.490;2023-02-28T06:02:48;4.43;;;2.83;;
51660;SDS011;37741;49.748;8.490;2023-02-28T06:05:14;3.33;;;2.53;;
51660;SDS011;37741;49.748;8.490;2023-02-28T06:07:41;4.60;;;2.77;;
51660;SDS011;37741;49.748;8.490;2023-02-28T06:10:07;3.80;;;2.50;;
51660;SDS011;37741;49.748;8.490;2023-02-28T06:12:34;4.37;;;2.63;;
51660;SDS011;37741;49.748;8.490;2023-02-28T06:15:00;6.23;;;2.70;;
51660;SDS011;37741;49.748;8.490;2023-02-28T06:17:26;5.97;;;2.93;;
51660;SDS011;37741;49.748;8.490;2023-02-28T06:19:51;4.53;;;2.83;;
51660;SDS011;37741;49.748;8.490;2023-02-28T06:22:17;4.37;;;2.50;;
51660;SDS011;37741;49.748;8.490;2023-02-28T06:24:50;3.93;;;2.57;;
51660;SDS011;37741;49.748;8.490;2023-02-28T06:27:15;4.20;;;2.17;;
51660;SDS011;37741;49.748;8.490;2023-02-28T06:29:44;4.10;;;2.73;;
51660;SDS011;37741;49.748;8.490;2023-02-28T06:32:14;3.90;;;2.47;;
51660;SDS011;37741;49.748;8.490;2023-02-28T06:34:40;6.93;;;3.20;;
51660;SDS011;37741;49.748;8.490;2023-02-28T06:37:05;5.53;;;2.53;;
51660;SDS011;37741;49.748;8.490;2023-02-28T06:39:38;3.87;;;2.53;;
51660;SDS011;37741;49.748;8.490;2023-02-28T06:42:04;4.50;;;2.53;;
51660;SDS011;37741;49.748;8.490;2023-02-28T06:44:30;7.23;;;2.63;;
51660;SDS011;37741;49.748;8.490;2023-02-28T06:47:00;3.43;;;2.37;;
51660;SDS011;37741;49.748;8.490;2023-02-28T06:49:31;4.90;;;2.40;;
51660;SDS011;37741;49.748;8.490;2023-02-28T06:51:58;5.23;;;2.50;;
51660;SDS011;37741;49.748;8.490;2023-02-28T06:54:24;4.27;;;2.50;;
51660;SDS011;37741;49.748;8.490;2023-02-28T06:56:52;4.97;;;2.83;;
51660;SDS011;37741;49.748;8.490;2023-02-28T06:59:19;3.40;;;2.60;;
51660;SDS011;37741;49.748;8.490;2023-02-28T07:01:45;4.77;;;3.60;;
51660;SDS011;37741;49.748;8.490;2023-02-28T07:04:17;4.50;;;2.80;;
51660;SDS011;37741;49.748;8.490;2023-02-28T07:06:43;5.20;;;2.97;;
51660;SDS011;37741;49.748;8.490;2023-02-28T07:09:09;9.37;;;3.10;;
51660;SDS011;37741;49.748;8.490;2023-02-28T07:11:38;5.10;;;3.10;;
51660;SDS011;37741;49.748;8.490;2023-02-28T07:14:08;3.50;;;2.40;;
51660;SDS011;37741;49.748;8.490;2023-02-28T07:16:36;4.70;;;2.63;;
51660;SDS011;37741;49.748;8.490;2023-02-28T07:19:01;5.03;;;3.50;;
51660;SDS011;37741;49.748;8.490;2023-02-28T07:21:27;4.17;;;2.57;;
51660;SDS011;37741;49.748;8.490;2023-02-28T07:23:53;6.30;;;3.50;;
51660;SDS011;37741;49.748;8.490;2023-02-28T07:26:19;5.00;;;2.93;;
51660;SDS011;37741;49.748;8.490;2023-02-28T07:28:45;4.07;;;3.10;;
51660;SDS011;37741;49.748;8.490;2023-02-28T07:31:12;6.03;;;3.43;;
51660;SDS011;37741;49.748;8.490;2023-02-28T07:33:39;5.57;;;3.43;;
51660;SDS011;37741;49.748;8.490;2023-02-28T07:36:06;6.57;;;3.97;;
51660;SDS011;37741;49.748;8.490;2023-02-28T07:38:36;4.70;;;3.27;;
51660;SDS011;37741;49.748;8.490;2023-02-28T07:41:02;5.93;;;3.80;;
51660;SDS011;37741;49.748;8.490;2023-02-28T07:43:33;6.73;;;3.67;;
51660;SDS011;37741;49.748;8.490;2023-02-28T07:46:03;6.40;;;3.80;;
51660;SDS011;37741;49.748;8.490;2023-02-28T07:48:34;6.63;;;3.30;;
51660;SDS011;37741;49.748;8.490;2023-02-28T07:51:00;5.80;;;3.20;;
51660;SDS011;37741;49.748;8.490;2023-02-28T07:53:26;8.87;;;3.90;;
51660;SDS011;37741;49.748;8.490;2023-02-28T07:55:59;6.07;;;3.63;;
51660;SDS011;37741;49.748;8.490;2023-02-28T07:58:26;5.27;;;3.43;;
51660;SDS011;37741;49.748;8.490;2023-02-28T08:00:53;6.67;;;4.40;;
51660;SDS011;37741;49.748;8.490;2023-02-28T08:03:19;7.97;;;4.00;;
51660;SDS011;37741;49.748;8.490;2023-02-28T08:05:47;11.07;;;4.43;;
51660;SDS011;37741;49.748;8.490;2023-02-28T08:08:14;5.43;;;3.60;;
51660;SDS011;37741;49.748;8.490;2023-02-28T08:10:40;5.33;;;3.80;;
51660;SDS011;37741;49.748;8.490;2023-02-28T08:13:06;7.00;;;4.20;;
51660;SDS011;37741;49.748;8.490;2023-02-28T08:15:32;6.23;;;4.17;;
51660;SDS011;37741;49.748;8.490;2023-02-28T08:17:58;11.37;;;5.37;;
51660;SDS011;37741;49.748;8.490;2023-02-28T08:20:23;11.00;;;5.40;;
51660;SDS011;37741;49.748;8.490;2023-02-28T08:22:50;6.80;;;4.40;;
51660;SDS011;37741;49.748;8.490;2023-02-28T08:25:15;7.57;;;4.87;;
51660;SDS011;37741;49.748;8.490;2023-02-28T08:27:41;10.40;;;5.20;;
51660;SDS011;37741;49.748;8.490;2023-02-28T08:30:07;6.63;;;4.60;;
51660;SDS011;37741;49.748;8.490;2023-02-28T08:32:35;10.33;;;5.87;;
51660;SDS011;37741;49.748;8.490;2023-02-28T08:35:01;8.93;;;6.27;;
51660;SDS011;37741;49.748;8.490;2023-02-28T08:37:28;9.67;;;5.80;;
51660;SDS011;37741;49.748;8.490;2023-02-28T08:39:53;8.90;;;5.77;;
51660;SDS011;37741;49.748;8.490;2023-02-28T08:42:19;8.63;;;5.50;;
51660;SDS011;37741;49.748;8.490;2023-02-28T08:44:45;9.80;;;5.57;;
51660;SDS011;37741;49.748;8.490;2023-02-28T08:47:11;9.73;;;6.40;;
51660;SDS011;37741;49.748;8.490;2023-02-28T08:49:36;10.97;;;6.57;;
51660;SDS011;37741;49.748;8.490;2023-02-28T08:52:02;11.67;;;6.03;;
51660;SDS011;37741;49.748;8.490;2023-02-28T08:54:31;8.90;;;5.80;;
51660;SDS011;37741;49.748;8.490;2023-02-28T08:56:58;9.13;;;5.77;;
51660;SDS011;37741;49.748;8.490;2023-02-28T08:59:23;10.47;;;5.40;;
51660;SDS011;37741;49.748;8.490;2023-02-28T09:01:49;10.33;;;5.53;;
51660;SDS011;37741;49.748;8.490;2023-02-28T09:04:15;8.20;;;5.47;;
51660;SDS011;37741;49.748;8.490;2023-02-28T09:06:41;9.67;;;5.10;;
51660;SDS011;37741;49.748;8.490;2023-02-28T09:09:06;8.80;;;6.00;;
51660;SDS011;37741;49.748;8.490;2023-02-28T09:11:33;9.37;;;5.13;;
51660;SDS011;37741;49.748;8.490;2023-02-28T09:14:00;8.90;;;6.10;;
51660;SDS011;37741;49.748;8.490;2023-02-28T09:16:28;12.03;;;6.87;;
51660;SDS011;37741;49.748;8.490;2023-02-28T09:18:54;11.27;;;5.93;;
51660;SDS011;37741;49.748;8.490;2023-02-28T09:21:20;8.87;;;5.20;;
51660;SDS011;37741;49.748;8.490;2023-02-28T09:23:46;9.97;;;5.57;;
51660;SDS011;37741;49.748;8.490;2023-02-28T09:26:15;8.80;;;4.67;;
51660;SDS011;37741;49.748;8.490;2023-02-28T09:28:43;7.57;;;4.80;;
51660;SDS011;37741;49.748;8.490;2023-02-28T09:31:16;7.37;;;4.63;;
51660;SDS011;37741;49.748;8.490;2023-02-28T09:33:46;7.33;;;4.30;;
51660;SDS011;37741;49.748;8.490;2023-02-28T09:36:15;7.77;;;4.30;;
51660;SDS011;37741;49.748;8.490;2023-02-28T09:38:41;6.60;;;4.30;;
51660;SDS011;37741;49.748;8.490;2023-02-28T09:41:15;7.43;;;4.20;;
51660;SDS011;37741;49.748;8.490;2023-02-28T09:43:43;7.50;;;5.00;;
51660;SDS011;37741;49.748;8.490;2023-02-28T09:49:16;6.20;;;4.03;;
51660;SDS011;37741;49.748;8.490;2023-02-28T09:52:18;6.07;;;3.60;;
51660;SDS011;37741;49.748;8.490;2023-02-28T09:54:38;8.40;;;4.35;;
51660;SDS011;37741;49.748;8.490;2023-02-28T09:59:59;6.23;;;4.10;;
51660;SDS011;37741;49.748;8.490;2023-02-28T10:05:20;7.83;;;4.30;;
51660;SDS011;37741;49.748;8.490;2023-02-28T10:10:40;6.43;;;4.03;;
51660;SDS011;37741;49.748;8.490;2023-02-28T10:16:02;6.20;;;4.83;;
51660;SDS011;37741;49.748;8.490;2023-02-28T10:18:52;7.17;;;4.37;;
51660;SDS011;37741;49.748;8.490;2023-02-28T10:21:26;5.27;;;3.80;;
51660;SDS011;37741;49.748;8.490;2023-02-28T10:24:01;6.30;;;4.60;;
51660;SDS011;37741;49.748;8.490;2023-02-28T10:26:30;6.70;;;4.67;;
51660;SDS011;37741;49.748;8.490;2023-02-28T10:28:57;6.63;;;4.80;;
51660;SDS011;37741;49.748;8.490;2023-02-28T10:31:23;6.83;;;4.57;;
51660;SDS011;37741;49.748;8.490;2023-02-28T10:33:49;6.83;;;4.30;;
51660;SDS011;37741;49.748;8.490;2023-02-28T10:36:16;5.40;;;4.03;;
51660;SDS011;37741;49.748;8.490;2023-02-28T10:38:44;7.32;;;4.70;;
51660;SDS011;37741;49.748;8.490;2023-02-28T10:41:15;7.85;;;5.20;;
51660;SDS011;37741;49.748;8.490;2023-02-28T10:43:51;5.72;;;3.70;;
51660;SDS011;37741;49.748;8.490;2023-02-28T10:46:18;6.78;;;4.68;;
51660;SDS011;37741;49.748;8.490;2023-02-28T10:49:06;6.88;;;4.65;;
51660;SDS011;37741;49.748;8.490;2023-02-28T10:51:42;7.18;;;4.10;;
51660;SDS011;37741;49.748;8.490;2023-02-28T10:54:14;9.30;;;4.53;;
51660;SDS011;37741;49.748;8.490;2023-02-28T10:56:42;6.63;;;4.60;;
51660;SDS011;37741;49.748;8.490;2023-02-28T11:01:40;5.82;;;4.18;;
51660;SDS011;37741;49.748;8.490;2023-02-28T11:04:16;7.95;;;4.82;;
51660;SDS011;37741;49.748;8.490;2023-02-28T11:06:43;6.07;;;4.55;;
51660;SDS011;37741;49.748;8.490;2023-02-28T11:09:16;12.55;;;4.95;;
51660;SDS011;37741;49.748;8.490;2023-02-28T11:11:48;6.90;;;4.53;;
51660;SDS011;37741;49.748;8.490;2023-02-28T11:14:19;7.38;;;4.68;;
51660;SDS011;37741;49.748;8.490;2023-02-28T11:16:49;6.88;;;4.80;;
51660;SDS011;37741;49.748;8.490;2023-02-28T11:19:20;6.15;;;4.40;;
51660;SDS011;37741;49.748;8.490;2023-02-28T11:21:57;7.70;;;5.18;;
51660;SDS011;37741;49.748;8.490;2023-02-28T11:24:34;6.80;;;4.70;;
51660;SDS011;37741;49.748;8.490;2023-02-28T11:27:05;5.93;;;4.22;;
51660;SDS011;37741;49.748;8.490;2023-02-28T11:29:39;6.70;;;4.30;;
51660;SDS011;37741;49.748;8.490;2023-02-28T11:32:16;6.50;;;4.55;;
51660;SDS011;37741;49.748;8.490;2023-02-28T11:34:45;6.10;;;4.43;;
51660;SDS011;37741;49.748;8.490;2023-02-28T11:37:16;9.10;;;5.35;;
51660;SDS011;37741;49.748;8.490;2023-02-28T11:39:44;7.80;;;4.63;;
51660;SDS011;37741;49.748;8.490;2023-02-28T11:50:15;7.85;;;4.70;;
51660;SDS011;37741;49.748;8.490;2023-02-28T11:52:58;7.80;;;4.78;;
51660;SDS011;37741;49.748;8.490;2023-02-28T11:55:38;8.20;;;5.20;;
51660;SDS011;37741;49.748;8.490;2023-02-28T12:06:48;8.07;;;5.30;;
51660;SDS011;37741;49.748;8.490;2023-02-28T12:12:29;7.63;;;5.55;;
51660;SDS011;37741;49.748;8.490;2023-02-28T12:23:19;9.32;;;5.10;;
51660;SDS011;37741;49.748;8.490;2023-02-28T12:34:37;8.65;;;5.25;;
51660;SDS011;37741;49.748;8.490;2023-02-28T12:40:34;7.00;;;5.30;;
51660;SDS011;37741;49.748;8.490;2023-02-28T12:43:05;10.63;;;5.00;;
51660;SDS011;37741;49.748;8.490;2023-02-28T12:45:43;6.10;;;5.18;;
51660;SDS011;37741;49.748;8.490;2023-02-28T12:48:15;7.88;;;5.28;;
51660;SDS011;37741;49.748;8.490;2023-02-28T12:50:54;7.03;;;5.45;;
51660;SDS011;37741;49.748;8.490;2023-02-28T12:58:54;6.93;;;5.28;;
51660;SDS011;37741;49.748;8.490;2023-02-28T13:01:32;7.32;;;5.18;;
51660;SDS011;37741;49.748;8.490;2023-02-28T13:10:14;6.47;;;4.80;;
51660;SDS011;37741;49.748;8.490;2023-02-28T13:12:48;7.03;;;5.22;;
51660;SDS011;37741;49.748;8.490;2023-02-28T13:17:48;8.73;;;5.53;;
51660;SDS011;37741;49.748;8.490;2023-02-28T13:20:19;9.10;;;5.85;;
51660;SDS011;37741;49.748;8.490;2023-02-28T13:22:50;7.50;;;5.25;;
51660;SDS011;37741;49.748;8.490;2023-02-28T13:27:59;7.53;;;6.05;;
51660;SDS011;37741;49.748;8.490;2023-02-28T13:33:28;8.77;;;6.20;;
51660;SDS011;37741;49.748;8.490;2023-02-28T13:38:42;7.80;;;5.45;;
51660;SDS011;37741;49.748;8.490;2023-02-28T13:44:07;7.72;;;5.43;;
51660;SDS011;37741;49.748;8.490;2023-02-28T14:05:17;7.32;;;5.40;;
51660;SDS011;37741;49.748;8.490;2023-02-28T14:07:50;7.57;;;5.57;;
51660;SDS011;37741;49.748;8.490;2023-02-28T14:10:24;9.63;;;5.47;;
51660;SDS011;37741;49.748;8.490;2023-02-28T14:12:54;11.70;;;6.22;;
51660;SDS011;37741;49.748;8.490;2023-02-28T14:20:52;7.47;;;5.22;;
51660;SDS011;37741;49.748;8.490;2023-02-28T14:23:31;7.80;;;5.90;;
51660;SDS011;37741;49.748;8.490;2023-02-28T14:31:54;7.32;;;5.75;;
51660;SDS011;37741;49.748;8.490;2023-02-28T14:34:37;8.93;;;5.45;;
51660;SDS011;37741;49.748;8.490;2023-02-28T14:37:20;7.95;;;5.18;;
51660;SDS011;37741;49.748;8.490;2023-02-28T14:39:51;7.95;;;5.07;;
51660;SDS011;37741;49.748;8.490;2023-02-28T14:42:35;7.82;;;5.65;;
51660;SDS011;37741;49.748;8.490;2023-02-28T14:45:03;8.15;;;5.80;;
51660;SDS011;37741;49.748;8.490;2023-02-28T14:47:32;8.23;;;5.60;;
51660;SDS011;37741;49.748;8.490;2023-02-28T14:50:00;6.70;;;4.82;;
51660;SDS011;37741;49.748;8.490;2023-02-28T14:52:29;7.85;;;5.22;;
51660;SDS011;37741;49.748;8.490;2023-02-28T14:55:04;6.85;;;5.13;;
51660;SDS011;37741;49.748;8.490;2023-02-28T14:57:41;7.38;;;5.10;;
51660;SDS011;37741;49.748;8.490;2023-02-28T15:00:16;9.02;;;5.00;;
51660;SDS011;37741;49.748;8.490;2023-02-28T15:02:53;8.98;;;5.40;;
51660;SDS011;37741;49.748;8.490;2023-02-28T15:05:33;6.82;;;4.90;;
51660;SDS011;37741;49.748;8.490;2023-02-28T15:08:01;7.25;;;5.63;;
51660;SDS011;37741;49.748;8.490;2023-02-28T15:10:27;8.20;;;5.85;;
51660;SDS011;37741;49.748;8.490;2023-02-28T15:12:54;8.43;;;5.32;;
51660;SDS011;37741;49.748;8.490;2023-02-28T15:18:20;9.98;;;5.57;;
51660;SDS011;37741;49.748;8.490;2023-02-28T15:21:07;7.20;;;5.10;;
51660;SDS011;37741;49.748;8.490;2023-02-28T15:23:42;6.78;;;5.05;;
51660;SDS011;37741;49.748;8.490;2023-02-28T15:26:13;7.88;;;5.38;;
51660;SDS011;37741;49.748;8.490;2023-02-28T15:28:42;8.25;;;5.30;;
51660;SDS011;37741;49.748;8.490;2023-02-28T15:31:42;6.53;;;4.95;;
51660;SDS011;37741;49.748;8.490;2023-02-28T15:34:06;7.40;;;5.55;;
51660;SDS011;37741;49.748;8.490;2023-02-28T15:36:39;8.00;;;6.03;;
51660;SDS011;37741;49.748;8.490;2023-02-28T15:39:22;8.25;;;4.85;;
51660;SDS011;37741;49.748;8.490;2023-02-28T15:42:09;7.97;;;6.03;;
51660;SDS011;37741;49.748;8.490;2023-02-28T15:44:36;9.10;;;5.30;;
51660;SDS011;37741;49.748;8.490;2023-02-28T15:47:03;6.57;;;5.30;;
51660;SDS011;37741;49.748;8.490;2023-02-28T15:50:14;9.07;;;5.95;;
51660;SDS011;37741;49.748;8.490;2023-02-28T15:55:11;9.27;;;5.45;;
51660;SDS011;37741;49.748;8.490;2023-02-28T15:57:45;9.20;;;5.43;;
51660;SDS011;37741;49.748;8.490;2023-02-28T16:00:16;9.18;;;6.03;;
51660;SDS011;37741;49.748;8.490;2023-02-28T16:02:45;7.22;;;5.30;;
51660;SDS011;37741;49.748;8.490;2023-02-28T16:07:40;8.55;;;4.72;;
51660;SDS011;37741;49.748;8.490;2023-02-28T16:10:09;6.55;;;5.07;;
51660;SDS011;37741;49.748;8.490;2023-02-28T16:12:36;8.57;;;5.22;;
51660;SDS011;37741;49.748;8.490;2023-02-28T16:17:53;7.28;;;5.40;;
51660;SDS011;37741;49.748;8.490;2023-02-28T16:20:29;6.80;;;4.82;;
51660;SDS011;37741;49.748;8.490;2023-02-28T16:22:55;9.02;;;5.07;;
51660;SDS011;37741;49.748;8.490;2023-02-28T16:25:29;6.10;;;4.70;;
51660;SDS011;37741;49.748;8.490;2023-02-28T16:27:59;7.00;;;5.22;;
51660;SDS011;37741;49.748;8.490;2023-02-28T16:30:27;6.97;;;5.35;;
51660;SDS011;37741;49.748;8.490;2023-02-28T16:32:56;7.53;;;4.93;;
51660;SDS011;37741;49.748;8.490;2023-02-28T16:35:22;6.53;;;4.63;;
51660;SDS011;37741;49.748;8.490;2023-02-28T16:37:50;6.85;;;4.28;;
51660;SDS011;37741;49.748;8.490;2023-02-28T16:40:17;7.00;;;4.93;;
51660;SDS011;37741;49.748;8.490;2023-02-28T16:42:45;8.30;;;5.25;;
51660;SDS011;37741;49.748;8.490;2023-02-28T16:45:23;7.05;;;4.65;;
51660;SDS011;37741;49.748;8.490;2023-02-28T16:47:50;6.72;;;4.78;;
51660;SDS011;37741;49.748;8.490;2023-02-28T16:50:17;8.55;;;5.20;;
51660;SDS011;37741;49.748;8.490;2023-02-28T16:52:45;7.38;;;5.10;;
51660;SDS011;37741;49.748;8.490;2023-02-28T16:55:12;7.53;;;4.97;;
51660;SDS011;37741;49.748;8.490;2023-02-28T16:57:38;7.15;;;5.03;;
51660;SDS011;37741;49.748;8.490;2023-02-28T17:00:05;5.82;;;4.22;;
51660;SDS011;37741;49.748;8.490;2023-02-28T17:02:33;7.20;;;4.50;;
51660;SDS011;37741;49.748;8.490;2023-02-28T17:04:59;7.75;;;4.93;;
51660;SDS011;37741;49.748;8.490;2023-02-28T17:07:25;6.88;;;4.78;;
51660;SDS011;37741;49.748;8.490;2023-02-28T17:09:51;7.28;;;4.93;;
51660;SDS011;37741;49.748;8.490;2023-02-28T17:12:16;6.68;;;5.10;;
51660;SDS011;37741;49.748;8.490;2023-02-28T17:14:42;6.10;;;4.78;;
51660;SDS011;37741;49.748;8.490;2023-02-28T17:17:09;6.85;;;5.15;;
51660;SDS011;37741;49.748;8.490;2023-02-28T17:19:41;7.85;;;5.22;;
51660;SDS011;37741;49.748;8.490;2023-02-28T17:22:08;6.50;;;5.00;;
51660;SDS011;37741;49.748;8.490;2023-02-28T17:24:35;6.53;;;4.80;;
51660;SDS011;37741;49.748;8.490;2023-02-28T17:27:00;8.43;;;5.65;;
51660;SDS011;37741;49.748;8.490;2023-02-28T17:29:26;10.75;;;6.35;;
51660;SDS011;37741;49.748;8.490;2023-02-28T17:31:52;9.93;;;5.95;;
51660;SDS011;37741;49.748;8.490;2023-02-28T17:34:18;9.52;;;5.40;;
51660;SDS011;37741;49.748;8.490;2023-02-28T17:36:45;8.95;;;5.80;;
51660;SDS011;37741;49.748;8.490;2023-02-28T17:39:12;8.02;;;5.43;;